Time;durP1;ratioP1;P1;durP2;ratioP2;P2;SDS_P1;SDS_P2;PMS_P1;PMS_P2;Temp;Humidity;BMP_temperature;BMP_pressure;BME280_temperature;BME280_humidity;BME280_pressure;Samples;Min_cycle;Max_cycle;Signal;HPM_P1;HPM_P2
2021/07/13 00:00:17;;;;;;;8.30;7.50;;;20.00;99.90;;;;;;4859172;29;20472;-75
2021/07/13 00:02:44;;;;;;;8.77;8.00;;;20.00;99.90;;;;;;4858375;29;20475;-77
2021/07/13 00:05:17;;;;;;;9.00;7.47;;;20.00;99.90;;;;;;4859346;29;20513;-76
2021/07/13 00:07:45;;;;;;;7.97;7.17;;;20.00;99.90;;;;;;4859589;29;20443;-77
2021/07/13 00:10:14;;;;;;;8.13;6.70;;;20.00;99.90;;;;;;4859343;29;20615;-76
2021/07/13 00:12:44;;;;;;;7.53;6.73;;;20.10;99.90;;;;;;4859763;29;20486;-77
2021/07/13 00:15:23;;;;;;;9.40;8.20;;;20.10;99.90;;;;;;4858214;29;21008;-76
2021/07/13 00:17:52;;;;;;;7.83;6.60;;;20.20;99.90;;;;;;4859363;29;20998;-76
2021/07/13 00:20:20;;;;;;;7.70;7.00;;;20.20;99.90;;;;;;4859225;29;20570;-76
2021/07/13 00:22:48;;;;;;;7.50;6.70;;;20.20;99.90;;;;;;4859483;29;20445;-77
2021/07/13 00:25:16;;;;;;;8.03;7.27;;;20.10;99.90;;;;;;4859080;29;20838;-77
2021/07/13 00:27:44;;;;;;;8.40;7.60;;;20.00;99.90;;;;;;4859969;29;20947;-78
2021/07/13 00:30:13;;;;;;;7.77;6.97;;;20.00;99.90;;;;;;4859205;29;20474;-75
2021/07/13 00:32:40;;;;;;;8.90;7.50;;;20.00;99.90;;;;;;4859532;29;20984;-77
2021/07/13 00:35:09;;;;;;;12.00;8.70;;;20.00;99.90;;;;;;4858271;29;20559;-76
2021/07/13 00:37:36;;;;;;;7.30;6.47;;;19.90;99.90;;;;;;4860559;29;20468;-77
2021/07/13 00:40:05;;;;;;;8.70;7.83;;;19.90;99.90;;;;;;4860357;29;20482;-76
2021/07/13 00:42:32;;;;;;;9.17;8.03;;;19.80;99.90;;;;;;4878114;29;21880;-76
2021/07/13 00:44:59;;;;;;;8.37;6.77;;;19.80;99.90;;;;;;4877743;29;20458;-77
2021/07/13 00:47:27;;;;;;;14.63;9.83;;;19.80;99.90;;;;;;4874584;29;20443;-76
2021/07/13 00:49:54;;;;;;;10.00;7.70;;;19.70;99.90;;;;;;4858929;29;21018;-79
2021/07/13 00:52:21;;;;;;;11.33;8.40;;;19.70;99.90;;;;;;4887520;29;20956;-83
2021/07/13 00:54:48;;;;;;;8.47;7.10;;;19.60;99.90;;;;;;4875403;28;20504;-84
2021/07/13 00:57:18;;;;;;;8.93;8.03;;;19.60;99.90;;;;;;4861970;29;21047;-84
2021/07/13 00:59:46;;;;;;;8.37;7.47;;;19.70;99.90;;;;;;4863164;29;20456;-82
2021/07/13 01:02:15;;;;;;;13.30;8.33;;;19.70;99.90;;;;;;4847907;29;20845;-83
2021/07/13 01:04:46;;;;;;;9.60;8.70;;;19.70;99.90;;;;;;4865219;29;20479;-81
2021/07/13 01:07:47;;;;;;;8.97;8.17;;;19.60;99.90;;;;;;4865530;29;20503;-83
2021/07/13 01:10:27;;;;;;;10.43;9.17;;;19.60;99.90;;;;;;4863973;29;20630;-84
2021/07/13 01:13:22;;;;;;;10.90;9.30;;;19.50;99.90;;;;;;4862742;29;20467;-84
2021/07/13 01:15:54;;;;;;;11.30;9.00;;;19.50;99.90;;;;;;4878191;29;20467;-80
2021/07/13 01:18:24;;;;;;;11.17;10.17;;;19.50;99.90;;;;;;4863275;29;20946;-82
2021/07/13 01:21:13;;;;;;;10.93;9.87;;;19.40;99.90;;;;;;4876912;29;20448;-82
2021/07/13 01:24:12;;;;;;;11.50;10.40;;;19.40;99.90;;;;;;4875752;29;20488;-83
2021/07/13 01:27:03;;;;;;;11.30;10.30;;;19.40;99.90;;;;;;4863728;29;20434;-80
2021/07/13 01:29:32;;;;;;;10.30;9.33;;;19.40;99.90;;;;;;4861419;29;20484;-82
2021/07/13 01:32:00;;;;;;;10.23;9.33;;;19.40;99.90;;;;;;4862464;29;20443;-82
2021/07/13 01:34:35;;;;;;;11.93;10.83;;;19.30;99.90;;;;;;4875290;29;20463;-82
2021/07/13 01:37:06;;;;;;;10.93;9.93;;;19.30;99.90;;;;;;4862387;29;20498;-79
2021/07/13 01:39:34;;;;;;;10.50;9.60;;;19.20;99.90;;;;;;4878503;29;20490;-83
2021/07/13 01:42:04;;;;;;;12.30;11.20;;;19.20;99.90;;;;;;4879562;29;20438;-82
2021/07/13 01:44:33;;;;;;;10.00;9.13;;;19.20;99.90;;;;;;4880053;29;20531;-81
2021/07/13 01:47:00;;;;;;;11.23;10.13;;;19.20;99.90;;;;;;4882878;29;20598;-81
2021/07/13 01:49:27;;;;;;;10.87;9.80;;;19.20;99.90;;;;;;4875966;29;20581;-83
2021/07/13 01:51:56;;;;;;;10.07;9.17;;;19.20;99.90;;;;;;4861110;29;20446;-83
2021/07/13 01:54:26;;;;;;;11.53;10.27;;;19.20;99.90;;;;;;4865780;29;20479;-84
2021/07/13 01:56:56;;;;;;;10.70;9.63;;;19.20;99.90;;;;;;4863295;29;20561;-83
2021/07/13 01:59:25;;;;;;;11.47;8.70;;;19.10;99.90;;;;;;4860524;29;21152;-85
2021/07/13 02:01:57;;;;;;;10.33;9.43;;;19.10;99.90;;;;;;4859475;29;20444;-83
2021/07/13 02:04:34;;;;;;;9.63;8.63;;;19.10;99.90;;;;;;4861419;29;20467;-83
2021/07/13 02:07:03;;;;;;;10.70;9.67;;;19.10;99.90;;;;;;4863156;29;20435;-80
2021/07/13 02:09:31;;;;;;;7.87;7.20;;;19.10;99.90;;;;;;4864210;29;20651;-81
2021/07/13 02:11:58;;;;;;;8.53;7.70;;;19.10;99.90;;;;;;4864013;29;20434;-83
2021/07/13 02:14:25;;;;;;;9.13;8.07;;;19.10;99.90;;;;;;4862447;29;20468;-81
2021/07/13 02:16:52;;;;;;;8.10;7.23;;;19.10;99.90;;;;;;4879973;29;20476;-83
2021/07/13 02:19:21;;;;;;;7.63;6.93;;;19.20;99.90;;;;;;4864051;29;20477;-84
2021/07/13 02:21:49;;;;;;;7.50;6.80;;;19.20;99.90;;;;;;4864491;29;20495;-82
2021/07/13 02:24:16;;;;;;;7.10;6.40;;;19.10;99.90;;;;;;4863533;29;20480;-80
2021/07/13 02:26:52;;;;;;;6.30;5.70;;;19.20;99.90;;;;;;4848612;29;20862;-82
2021/07/13 02:29:32;;;;;;;7.03;6.40;;;19.10;99.90;;;;;;4863036;29;20471;-80
2021/07/13 02:32:46;;;;;;;6.83;6.07;;;19.00;99.90;;;;;;4863118;29;20964;-81
2021/07/13 02:35:14;;;;;;;7.10;6.40;;;19.00;99.90;;;;;;4862484;29;20476;-82
2021/07/13 02:37:45;;;;;;;7.30;6.17;;;19.00;99.90;;;;;;4862719;29;20475;-81
2021/07/13 02:40:15;;;;;;;6.70;6.10;;;18.90;99.90;;;;;;4860989;29;20482;-81
2021/07/13 02:42:45;;;;;;;6.57;6.07;;;18.80;99.90;;;;;;4861326;29;20815;-78
2021/07/13 02:45:14;;;;;;;9.00;6.50;;;18.80;99.90;;;;;;4873831;29;20461;-81
2021/07/13 02:47:44;;;;;;;7.80;7.17;;;18.70;99.90;;;;;;4887067;29;20453;-82
2021/07/13 02:50:12;;;;;;;7.00;6.40;;;18.70;99.90;;;;;;4860870;29;20472;-81
2021/07/13 02:52:40;;;;;;;7.00;6.30;;;18.70;99.90;;;;;;4859939;29;21107;-83
2021/07/13 02:55:11;;;;;;;7.00;6.30;;;18.80;99.90;;;;;;4863255;29;20480;-83
2021/07/13 02:57:39;;;;;;;7.87;7.03;;;18.80;99.90;;;;;;4864931;29;20458;-84
2021/07/13 03:00:08;;;;;;;6.90;6.30;;;18.70;99.90;;;;;;4863555;29;20489;-83
2021/07/13 03:02:37;;;;;;;6.77;5.40;;;18.70;99.90;;;;;;4864247;29;20549;-82
2021/07/13 03:05:05;;;;;;;7.20;5.90;;;18.70;99.90;;;;;;4865202;29;20464;-82
2021/07/13 03:07:33;;;;;;;8.57;6.00;;;18.70;99.90;;;;;;4882461;29;20437;-82
2021/07/13 03:10:01;;;;;;;5.73;5.13;;;18.70;99.90;;;;;;4866836;29;20488;-82
2021/07/13 03:12:29;;;;;;;6.17;5.13;;;18.80;99.90;;;;;;4875942;29;20965;-81
2021/07/13 03:14:58;;;;;;;7.13;6.47;;;18.70;99.90;;;;;;4875373;29;20579;-82
2021/07/13 03:17:26;;;;;;;6.27;5.67;;;18.70;99.90;;;;;;4879349;29;20495;-82
2021/07/13 03:19:53;;;;;;;7.70;6.17;;;18.70;99.90;;;;;;4879782;29;20480;-81
2021/07/13 03:22:27;;;;;;;8.73;5.83;;;18.70;99.90;;;;;;4878289;29;20986;-79
2021/07/13 03:24:58;;;;;;;6.30;5.70;;;18.80;99.90;;;;;;4873620;29;20484;-81
2021/07/13 03:27:26;;;;;;;8.90;6.10;;;18.80;99.90;;;;;;4859339;29;20435;-81
2021/07/13 03:29:56;;;;;;;6.30;5.70;;;18.80;99.90;;;;;;4859172;29;20474;-80
2021/07/13 03:32:24;;;;;;;9.53;6.60;;;18.80;99.90;;;;;;4872199;29;20457;-79
2021/07/13 03:34:52;;;;;;;7.17;6.47;;;18.90;99.90;;;;;;4877353;29;20465;-81
2021/07/13 03:37:19;;;;;;;8.93;8.03;;;18.90;99.90;;;;;;4877004;29;20476;-80
2021/07/13 03:39:48;;;;;;;7.87;6.47;;;18.80;99.90;;;;;;4866248;29;20484;-79
2021/07/13 03:42:19;;;;;;;9.27;8.37;;;18.80;99.90;;;;;;4860070;29;20430;-79
2021/07/13 03:44:46;;;;;;;8.40;7.40;;;18.80;99.90;;;;;;4864488;29;20467;-79
2021/07/13 03:47:15;;;;;;;9.77;8.77;;;18.80;99.90;;;;;;4876209;29;20435;-78
2021/07/13 03:49:43;;;;;;;8.30;7.50;;;18.80;99.90;;;;;;4878517;29;20531;-79
2021/07/13 03:52:15;;;;;;;9.00;8.20;;;18.80;99.90;;;;;;4878496;29;20431;-80
2021/07/13 03:54:42;;;;;;;8.90;8.00;;;18.70;99.90;;;;;;4872830;29;20485;-81
2021/07/13 03:57:09;;;;;;;9.40;8.50;;;18.60;99.90;;;;;;4843528;29;20466;-79
2021/07/13 03:59:41;;;;;;;9.63;8.47;;;18.60;99.90;;;;;;4859528;29;21166;-81
2021/07/13 04:02:08;;;;;;;10.13;7.90;;;18.60;99.90;;;;;;4866207;29;21121;-79
2021/07/13 04:04:35;;;;;;;9.13;8.10;;;18.60;99.90;;;;;;4859340;29;20470;-81
2021/07/13 04:07:04;;;;;;;8.37;7.60;;;18.60;99.90;;;;;;4860087;29;20437;-79
2021/07/13 04:09:31;;;;;;;8.77;7.47;;;18.60;99.90;;;;;;4859710;29;20482;-80
2021/07/13 04:11:58;;;;;;;10.20;9.17;;;18.60;99.90;;;;;;4858690;29;20441;-80
2021/07/13 04:14:25;;;;;;;12.13;8.90;;;18.60;99.90;;;;;;4859058;29;20474;-80
2021/07/13 04:16:52;;;;;;;9.97;8.97;;;18.60;99.90;;;;;;4859939;29;20480;-78
2021/07/13 04:19:19;;;;;;;10.10;7.83;;;18.60;99.90;;;;;;4872201;29;20494;-82
2021/07/13 04:21:46;;;;;;;9.53;8.63;;;18.50;99.90;;;;;;4879027;29;20424;-82
2021/07/13 04:24:14;;;;;;;8.57;7.63;;;18.60;99.90;;;;;;4872115;29;20537;-82
2021/07/13 04:26:41;;;;;;;9.50;8.33;;;18.60;99.90;;;;;;4864211;29;20923;-81
2021/07/13 04:29:08;;;;;;;9.00;8.10;;;18.60;99.90;;;;;;4879947;29;20472;-83
2021/07/13 04:31:35;;;;;;;10.17;9.17;;;18.60;99.90;;;;;;4866230;29;20461;-84
2021/07/13 04:34:10;;;;;;;8.53;7.63;;;18.60;99.90;;;;;;4863756;29;20468;-83
2021/07/13 04:36:38;;;;;;;9.77;8.90;;;18.60;99.90;;;;;;4864619;29;20944;-85
2021/07/13 04:39:06;;;;;;;12.17;10.20;;;18.50;99.90;;;;;;4866631;29;20481;-83
2021/07/13 04:41:33;;;;;;;10.47;9.40;;;18.50;99.90;;;;;;4864016;29;20495;-83
2021/07/13 04:44:00;;;;;;;12.57;8.90;;;18.60;99.90;;;;;;4864723;29;20552;-83
2021/07/13 04:46:28;;;;;;;14.37;9.30;;;18.60;99.90;;;;;;4873395;29;20501;-82
2021/07/13 04:48:55;;;;;;;11.60;9.80;;;18.60;99.90;;;;;;4872098;29;20836;-84
2021/07/13 04:51:24;;;;;;;11.30;8.40;;;18.60;99.90;;;;;;4866055;29;20442;-81
2021/07/13 04:53:51;;;;;;;11.77;9.77;;;18.60;99.90;;;;;;4864647;29;20486;-83
2021/07/13 04:56:18;;;;;;;10.20;8.83;;;18.60;99.90;;;;;;4879163;29;20457;-83
2021/07/13 04:58:45;;;;;;;10.47;9.20;;;18.60;99.90;;;;;;4866025;29;20474;-82
2021/07/13 05:01:11;;;;;;;11.63;10.50;;;18.70;99.90;;;;;;4865037;29;20435;-82
2021/07/13 05:03:38;;;;;;;10.70;9.10;;;18.80;99.90;;;;;;4869291;29;20473;-84
2021/07/13 05:06:06;;;;;;;10.93;9.83;;;18.80;99.90;;;;;;4882225;29;20804;-85
2021/07/13 05:08:33;;;;;;;11.67;9.20;;;18.80;99.90;;;;;;4881066;29;20575;-84
2021/07/13 05:11:00;;;;;;;9.63;8.60;;;18.80;99.90;;;;;;4878920;29;20433;-84
2021/07/13 05:13:27;;;;;;;10.43;9.00;;;18.80;99.90;;;;;;4863664;29;20464;-83
2021/07/13 05:15:54;;;;;;;10.33;9.30;;;18.70;99.90;;;;;;4847521;29;20476;-83
2021/07/13 05:18:21;;;;;;;13.07;9.80;;;18.60;99.90;;;;;;4864535;29;20497;-84
2021/07/13 05:20:50;;;;;;;10.33;9.20;;;18.60;99.90;;;;;;4865679;29;20483;-84
2021/07/13 05:23:17;;;;;;;11.00;9.40;;;18.60;99.90;;;;;;4880681;29;20465;-82
2021/07/13 05:25:47;;;;;;;11.50;9.30;;;18.60;99.90;;;;;;4866249;29;20441;-84
2021/07/13 05:28:13;;;;;;;11.03;9.90;;;18.60;99.90;;;;;;4864066;29;20436;-84
2021/07/13 05:30:42;;;;;;;12.43;11.13;;;18.50;99.90;;;;;;4865199;29;20430;-84
2021/07/13 05:33:10;;;;;;;11.73;10.00;;;18.60;99.90;;;;;;4869950;29;20863;-82
2021/07/13 05:35:38;;;;;;;10.93;9.90;;;18.70;99.90;;;;;;4864446;29;20493;-83
2021/07/13 05:38:05;;;;;;;9.97;9.07;;;18.70;99.90;;;;;;4863148;29;20476;-84
2021/07/13 05:40:32;;;;;;;12.40;9.80;;;18.60;99.90;;;;;;4882178;29;20448;-84
2021/07/13 05:42:59;;;;;;;11.87;10.20;;;18.70;99.90;;;;;;4881482;29;20461;-84
2021/07/13 05:45:29;;;;;;;13.70;10.97;;;18.60;99.90;;;;;;4880500;29;20516;-82
2021/07/13 05:47:56;;;;;;;12.47;10.13;;;18.50;99.90;;;;;;4865516;29;20508;-83
2021/07/13 05:50:23;;;;;;;11.03;9.70;;;18.50;99.90;;;;;;4881688;29;20465;-80
2021/07/13 05:52:50;;;;;;;11.67;10.00;;;18.60;99.90;;;;;;4880374;29;20469;-82
2021/07/13 05:55:20;;;;;;;13.77;11.17;;;18.50;99.90;;;;;;4880900;29;20472;-84
2021/07/13 05:57:50;;;;;;;10.83;9.47;;;18.50;99.90;;;;;;4888715;29;20473;-84
2021/07/13 06:00:19;;;;;;;9.97;8.97;;;18.60;99.90;;;;;;4881396;29;20473;-84
2021/07/13 06:02:46;;;;;;;11.40;9.60;;;18.60;99.90;;;;;;4877120;29;20542;-85
2021/07/13 06:05:14;;;;;;;11.90;10.60;;;18.50;99.90;;;;;;4876098;29;20559;-83
2021/07/13 06:07:46;;;;;;;12.47;11.17;;;18.50;99.90;;;;;;4863331;29;20640;-83
2021/07/13 06:10:20;;;;;;;12.97;11.57;;;18.50;99.90;;;;;;4878434;29;20846;-83
2021/07/13 06:12:49;;;;;;;15.17;11.00;;;18.60;99.90;;;;;;4879636;29;21062;-84
2021/07/13 06:15:17;;;;;;;12.33;11.03;;;18.50;99.90;;;;;;4878789;29;20814;-83
2021/07/13 06:17:44;;;;;;;13.27;10.93;;;18.60;99.90;;;;;;4875860;29;20477;-84
2021/07/13 06:20:12;;;;;;;11.10;9.97;;;18.60;99.90;;;;;;4863517;29;20506;-84
2021/07/13 06:22:40;;;;;;;11.87;10.67;;;18.60;99.90;;;;;;4861275;29;20460;-85
2021/07/13 06:25:08;;;;;;;11.87;10.60;;;18.60;99.90;;;;;;4860255;29;20551;-84
2021/07/13 06:27:36;;;;;;;13.80;11.17;;;18.60;99.90;;;;;;4861831;29;20433;-83
2021/07/13 06:30:10;;;;;;;10.97;9.83;;;18.60;99.90;;;;;;4863671;29;20470;-84
2021/07/13 06:32:37;;;;;;;13.93;11.80;;;18.60;99.90;;;;;;4876792;29;20495;-84
2021/07/13 06:35:05;;;;;;;13.63;11.50;;;18.50;99.90;;;;;;4868726;29;20466;-82
2021/07/13 06:37:32;;;;;;;14.07;11.30;;;18.60;99.90;;;;;;4876415;29;20489;-82
2021/07/13 06:39:59;;;;;;;11.07;8.70;;;18.60;99.90;;;;;;4875802;29;20851;-85
2021/07/13 06:42:26;;;;;;;10.17;9.07;;;18.60;99.90;;;;;;4865837;29;20466;-84
2021/07/13 06:44:52;;;;;;;12.03;10.83;;;18.50;99.90;;;;;;4865252;29;20496;-83
2021/07/13 06:47:19;;;;;;;12.53;10.70;;;18.50;99.90;;;;;;4864213;29;20433;-83
2021/07/13 06:49:46;;;;;;;16.10;12.47;;;18.50;99.90;;;;;;4882862;29;20457;-83
2021/07/13 06:52:13;;;;;;;17.10;11.70;;;18.60;99.90;;;;;;4884912;29;20433;-84
2021/07/13 06:54:40;;;;;;;12.90;11.20;;;18.60;99.90;;;;;;4856641;29;20517;-84
2021/07/13 06:57:08;;;;;;;12.30;10.90;;;18.70;99.90;;;;;;4869536;29;20467;-85
2021/07/13 06:59:35;;;;;;;12.07;10.00;;;18.70;99.90;;;;;;4878483;29;20534;-83
2021/07/13 07:02:02;;;;;;;11.27;10.13;;;18.70;99.90;;;;;;4883550;29;20463;-82
2021/07/13 07:04:29;;;;;;;13.23;10.33;;;18.60;99.90;;;;;;4881166;29;20550;-84
2021/07/13 07:06:56;;;;;;;11.10;9.90;;;18.60;99.90;;;;;;4881853;29;20949;-83
2021/07/13 07:09:23;;;;;;;15.93;10.90;;;18.60;99.90;;;;;;4872166;29;20545;-83
2021/07/13 07:11:50;;;;;;;13.53;11.70;;;18.60;99.90;;;;;;4863034;29;20429;-85
2021/07/13 07:14:17;;;;;;;15.00;10.70;;;18.60;99.90;;;;;;4862646;29;20991;-82
2021/07/13 07:16:48;;;;;;;13.40;10.30;;;18.60;99.90;;;;;;4864358;29;20862;-84
2021/07/13 07:19:18;;;;;;;19.00;10.90;;;18.70;99.90;;;;;;4880204;29;20571;-85
2021/07/13 07:21:47;;;;;;;13.10;11.13;;;18.70;99.90;;;;;;4882374;29;20432;-82
2021/07/13 07:24:15;;;;;;;12.77;11.47;;;18.70;99.90;;;;;;4879484;29;20484;-85
2021/07/13 07:26:42;;;;;;;14.47;13.07;;;18.70;99.90;;;;;;4879173;29;20475;-84
2021/07/13 07:29:09;;;;;;;15.93;12.60;;;18.60;99.90;;;;;;4879524;29;20471;-84
2021/07/13 07:31:36;;;;;;;15.53;13.77;;;18.60;99.90;;;;;;4880121;29;20925;-84
2021/07/13 07:34:06;;;;;;;12.60;11.10;;;18.60;99.90;;;;;;4869834;29;20481;-82
2021/07/13 07:36:34;;;;;;;14.63;12.20;;;18.70;99.90;;;;;;4861274;29;20916;-83
2021/07/13 07:39:04;;;;;;;14.50;12.10;;;18.70;99.90;;;;;;4861124;29;20479;-84
2021/07/13 07:41:31;;;;;;;14.53;11.30;;;18.70;99.90;;;;;;4861545;29;20433;-84
2021/07/13 07:44:00;;;;;;;14.83;13.33;;;18.70;99.90;;;;;;4892219;28;21033;-83
2021/07/13 07:46:30;;;;;;;14.57;13.07;;;18.70;99.90;;;;;;4885739;29;20495;-83
2021/07/13 07:49:02;;;;;;;13.97;12.40;;;18.70;99.90;;;;;;4881257;29;20477;-83
2021/07/13 07:51:30;;;;;;;14.93;13.37;;;18.70;99.90;;;;;;4882328;29;20438;-83
2021/07/13 07:53:57;;;;;;;14.20;12.70;;;18.70;99.90;;;;;;4863349;29;21030;-83
2021/07/13 07:56:24;;;;;;;13.67;12.20;;;18.80;99.90;;;;;;4864646;29;20441;-83
2021/07/13 07:58:53;;;;;;;13.17;11.80;;;18.70;99.90;;;;;;4863217;29;21005;-81
2021/07/13 08:01:21;;;;;;;12.23;10.87;;;18.70;99.90;;;;;;4848029;29;20531;-83
2021/07/13 08:03:48;;;;;;;16.93;12.10;;;18.60;99.90;;;;;;4871054;29;20511;-83
2021/07/13 08:06:15;;;;;;;13.30;12.00;;;18.70;99.90;;;;;;4850440;29;20867;-84
2021/07/13 08:08:42;;;;;;;13.47;12.07;;;18.70;99.90;;;;;;4871648;29;20532;-84
2021/07/13 08:11:10;;;;;;;13.47;11.60;;;18.60;99.90;;;;;;4860612;29;20597;-84
2021/07/13 08:13:38;;;;;;;13.20;11.90;;;18.60;99.90;;;;;;4856584;29;20553;-82
2021/07/13 08:16:06;;;;;;;13.80;12.40;;;18.60;99.90;;;;;;4889623;29;20432;-83
2021/07/13 08:18:33;;;;;;;16.07;12.70;;;18.60;99.90;;;;;;4877067;29;20559;-82
2021/07/13 08:21:00;;;;;;;14.20;12.80;;;18.60;99.90;;;;;;4862804;29;20478;-83
2021/07/13 08:23:28;;;;;;;13.77;12.37;;;18.60;99.90;;;;;;4876616;29;20843;-82
2021/07/13 08:25:55;;;;;;;15.63;14.03;;;18.60;99.90;;;;;;4882187;29;20435;-81
2021/07/13 08:28:22;;;;;;;15.90;13.20;;;18.60;99.90;;;;;;4881434;29;20475;-80
2021/07/13 08:30:49;;;;;;;13.43;11.97;;;18.60;99.90;;;;;;4882129;29;20427;-83
2021/07/13 08:33:18;;;;;;;16.80;11.50;;;18.60;99.90;;;;;;4879477;29;20563;-81
2021/07/13 08:35:45;;;;;;;14.17;12.57;;;18.60;99.90;;;;;;4861874;29;20471;-84
2021/07/13 08:38:12;;;;;;;14.40;12.70;;;18.60;99.90;;;;;;4859193;29;20437;-84
2021/07/13 08:40:40;;;;;;;12.93;11.43;;;18.70;99.90;;;;;;4882451;29;20475;-84
2021/07/13 08:43:07;;;;;;;14.87;13.37;;;18.70;99.90;;;;;;4884932;29;20447;-84
2021/07/13 08:45:34;;;;;;;13.07;11.87;;;18.70;99.90;;;;;;4888592;29;20419;-84
2021/07/13 08:48:01;;;;;;;14.87;13.27;;;18.70;99.90;;;;;;4887206;28;20475;-84
2021/07/13 08:50:28;;;;;;;12.50;10.90;;;18.70;99.90;;;;;;4903838;29;20435;-82
2021/07/13 08:52:58;;;;;;;13.30;11.53;;;18.60;99.90;;;;;;4899519;28;20450;-83
2021/07/13 08:55:26;;;;;;;16.80;12.20;;;18.60;99.90;;;;;;4864535;29;20460;-83
2021/07/13 08:57:53;;;;;;;15.10;11.50;;;18.60;99.90;;;;;;4845253;29;20483;-86
2021/07/13 09:00:20;;;;;;;13.63;12.10;;;18.70;99.90;;;;;;4860974;29;20469;-84
2021/07/13 09:03:11;;;;;;;14.93;11.60;;;18.70;99.90;;;;;;4861875;29;20479;-84
2021/07/13 09:05:44;;;;;;;13.93;11.80;;;18.60;99.90;;;;;;4859610;29;20963;-85
2021/07/13 09:08:15;;;;;;;13.60;12.17;;;18.70;99.90;;;;;;4860159;29;20428;-83
2021/07/13 09:11:04;;;;;;;14.37;12.87;;;18.70;99.90;;;;;;4878666;29;20448;-84
2021/07/13 09:13:35;;;;;;;14.17;12.67;;;18.70;99.90;;;;;;4881466;29;20478;-84
2021/07/13 09:16:04;;;;;;;14.80;13.30;;;18.70;99.90;;;;;;4882891;29;20432;-85
2021/07/13 09:18:35;;;;;;;13.23;11.90;;;18.70;99.90;;;;;;4881327;29;20493;-84
2021/07/13 09:21:13;;;;;;;13.07;11.33;;;18.60;99.90;;;;;;4881694;29;20971;-82
2021/07/13 09:24:00;;;;;;;12.40;11.20;;;18.60;99.90;;;;;;4877196;29;20983;-84
2021/07/13 09:26:52;;;;;;;14.53;11.40;;;18.60;99.90;;;;;;4862393;29;20465;-84
2021/07/13 09:29:41;;;;;;;11.13;10.00;;;18.60;99.90;;;;;;4858238;29;20468;-82
2021/07/13 09:32:32;;;;;;;10.77;9.67;;;18.60;99.90;;;;;;4864813;29;20474;-84
2021/07/13 09:35:09;;;;;;;13.60;10.00;;;18.60;99.90;;;;;;4863452;29;20559;-82
2021/07/13 09:37:38;;;;;;;12.20;10.87;;;18.60;99.90;;;;;;4862119;29;20772;-82
2021/07/13 09:40:16;;;;;;;12.77;11.23;;;18.60;99.90;;;;;;4846462;29;20507;-85
2021/07/13 09:42:52;;;;;;;11.33;10.23;;;18.60;99.90;;;;;;4862186;29;20504;-84
2021/07/13 09:45:32;;;;;;;12.83;10.63;;;18.70;99.90;;;;;;4861760;29;20484;-83
2021/07/13 09:48:08;;;;;;;12.57;11.30;;;18.70;99.90;;;;;;4865646;29;20454;-82
2021/07/13 09:50:48;;;;;;;12.20;11.00;;;18.70;99.90;;;;;;4877784;29;20457;-82
2021/07/13 09:53:18;;;;;;;13.27;11.87;;;18.70;99.90;;;;;;4863056;29;20447;-84
2021/07/13 09:55:47;;;;;;;13.20;10.93;;;18.70;99.90;;;;;;4896225;29;20931;-84
2021/07/13 09:58:32;;;;;;;12.57;11.37;;;18.80;99.90;;;;;;4879946;29;20440;-85
2021/07/13 10:00:59;;;;;;;12.40;11.10;;;18.70;99.90;;;;;;4882617;29;20476;-84
2021/07/13 10:03:27;;;;;;;11.80;10.60;;;18.80;99.90;;;;;;4871191;29;20483;-84
2021/07/13 10:05:58;;;;;;;11.57;10.50;;;18.80;99.90;;;;;;4862533;29;20435;-85
2021/07/13 10:08:26;;;;;;;12.03;10.80;;;18.80;99.90;;;;;;4861752;29;20878;-83
2021/07/13 10:10:53;;;;;;;13.77;11.80;;;18.80;99.90;;;;;;4864255;29;20426;-84
2021/07/13 10:13:21;;;;;;;12.60;11.27;;;18.70;99.90;;;;;;4863744;29;20969;-82
2021/07/13 10:15:49;;;;;;;11.60;10.50;;;18.80;99.90;;;;;;4885455;29;20531;-82
2021/07/13 10:18:23;;;;;;;10.73;9.60;;;18.80;99.90;;;;;;4887999;29;20521;-82
2021/07/13 10:20:52;;;;;;;10.13;9.20;;;18.80;99.90;;;;;;4883353;29;20440;-84
2021/07/13 10:23:20;;;;;;;10.73;9.20;;;18.80;99.90;;;;;;4869771;29;20465;-84
2021/07/13 10:25:47;;;;;;;10.90;9.10;;;18.80;99.90;;;;;;4864069;29;20442;-84
2021/07/13 10:28:20;;;;;;;10.90;9.80;;;18.80;99.90;;;;;;4863373;29;20426;-84
2021/07/13 10:30:49;;;;;;;11.43;10.17;;;18.80;99.90;;;;;;4863315;29;21009;-84
2021/07/13 10:33:35;;;;;;;12.67;9.50;;;18.80;99.90;;;;;;4880706;29;20987;-83
2021/07/13 10:36:28;;;;;;;11.47;10.37;;;18.80;99.90;;;;;;4880459;29;20527;-83
2021/07/13 10:39:23;;;;;;;14.83;10.20;;;18.80;99.90;;;;;;4874958;29;20492;-83
2021/07/13 10:41:50;;;;;;;11.50;10.27;;;18.80;99.90;;;;;;4872226;29;20459;-83
2021/07/13 10:44:46;;;;;;;14.63;11.20;;;18.90;99.90;;;;;;4880139;29;20832;-82
2021/07/13 10:47:32;;;;;;;10.73;9.63;;;18.90;99.90;;;;;;4878888;29;20469;-83
2021/07/13 10:50:17;;;;;;;12.47;11.07;;;18.90;99.90;;;;;;4878467;29;20465;-83
2021/07/13 10:52:58;;;;;;;11.67;9.90;;;18.80;99.90;;;;;;4884525;29;20462;-83
2021/07/13 10:55:31;;;;;;;11.80;10.70;;;18.80;99.90;;;;;;4863025;29;21000;-83
2021/07/13 10:58:14;;;;;;;12.47;11.27;;;18.90;99.90;;;;;;4879442;29;20453;-80
2021/07/13 11:00:50;;;;;;;13.20;11.33;;;18.90;99.90;;;;;;4879755;29;20525;-82
2021/07/13 11:03:31;;;;;;;10.83;9.83;;;18.90;99.90;;;;;;4875634;29;20560;-80
2021/07/13 11:06:18;;;;;;;11.93;10.60;;;19.00;99.90;;;;;;4861246;29;20430;-83
2021/07/13 11:08:46;;;;;;;11.50;10.40;;;18.90;99.90;;;;;;4865228;29;20472;-79
2021/07/13 11:11:18;;;;;;;12.20;11.00;;;19.00;99.90;;;;;;4875001;29;20426;-82
2021/07/13 11:13:52;;;;;;;14.30;12.40;;;19.00;99.90;;;;;;4877130;29;20543;-83
2021/07/13 11:16:31;;;;;;;17.00;15.20;;;19.00;99.90;;;;;;4879377;29;20417;-82
2021/07/13 11:19:00;;;;;;;14.50;12.70;;;18.90;99.90;;;;;;4877043;29;21004;-81
2021/07/13 11:21:31;;;;;;;14.70;13.30;;;18.90;99.90;;;;;;4879670;29;20861;-78
2021/07/13 11:24:06;;;;;;;14.07;12.70;;;18.90;99.90;;;;;;4872731;29;20482;-80
2021/07/13 11:26:37;;;;;;;14.60;12.50;;;19.00;99.90;;;;;;4860679;29;20446;-80
2021/07/13 11:29:06;;;;;;;15.10;13.50;;;18.90;99.90;;;;;;4859027;29;20525;-80
2021/07/13 11:31:35;;;;;;;14.77;13.17;;;19.00;99.90;;;;;;4860675;29;20434;-80
2021/07/13 11:34:06;;;;;;;15.10;13.50;;;19.00;99.90;;;;;;4867131;29;20467;-79
2021/07/13 11:36:40;;;;;;;14.23;12.73;;;19.10;99.90;;;;;;4859312;29;20435;-80
2021/07/13 11:39:12;;;;;;;14.93;13.53;;;19.10;99.90;;;;;;4873485;29;20573;-81
2021/07/13 11:41:41;;;;;;;15.13;13.40;;;19.10;99.90;;;;;;4859338;29;20866;-80
2021/07/13 11:44:12;;;;;;;16.00;14.50;;;19.10;99.90;;;;;;4859729;29;20996;-80
2021/07/13 11:46:43;;;;;;;15.67;13.87;;;19.10;99.90;;;;;;4859039;29;20526;-81
2021/07/13 11:49:11;;;;;;;15.60;13.90;;;19.10;99.90;;;;;;4858703;29;20469;-80
2021/07/13 11:51:39;;;;;;;14.93;13.43;;;19.10;99.90;;;;;;4858996;29;20441;-81
2021/07/13 11:54:07;;;;;;;15.73;14.10;;;19.20;99.90;;;;;;4859684;29;20482;-80
2021/07/13 11:56:38;;;;;;;19.00;17.10;;;19.20;99.90;;;;;;4861265;29;20463;-80
2021/07/13 11:59:05;;;;;;;20.37;17.60;;;19.20;99.90;;;;;;4859362;29;20732;-80
2021/07/13 12:01:34;;;;;;;19.33;16.77;;;19.10;99.90;;;;;;4859204;29;20477;-80
2021/07/13 12:04:05;;;;;;;19.33;17.20;;;19.10;99.90;;;;;;4843102;29;20480;-79
2021/07/13 12:06:34;;;;;;;18.70;16.80;;;19.20;99.90;;;;;;4859914;29;20452;-80
2021/07/13 12:09:09;;;;;;;19.63;17.53;;;19.30;99.90;;;;;;4863207;29;21017;-78
2021/07/13 12:11:40;;;;;;;21.77;18.33;;;19.40;99.90;;;;;;4865230;29;20454;-79
2021/07/13 12:14:10;;;;;;;21.60;17.60;;;19.40;99.90;;;;;;4862389;29;20468;-76
2021/07/13 12:16:38;;;;;;;19.43;17.10;;;19.50;99.90;;;;;;4862782;29;20430;-78
2021/07/13 12:19:09;;;;;;;22.30;19.60;;;19.60;99.90;;;;;;4861876;29;20464;-78
2021/07/13 12:21:41;;;;;;;21.83;19.57;;;19.70;99.90;;;;;;4862417;29;20439;-77
2021/07/13 12:24:16;;;;;;;21.67;17.90;;;19.70;99.90;;;;;;4862372;29;20480;-76
2021/07/13 12:26:49;;;;;;;20.60;18.13;;;19.70;99.90;;;;;;4861318;29;20428;-76
2021/07/13 12:29:22;;;;;;;23.13;20.60;;;19.70;99.90;;;;;;4861841;29;20488;-78
2021/07/13 12:31:54;;;;;;;23.33;20.57;;;19.70;99.90;;;;;;4862259;29;20505;-76
2021/07/13 12:34:24;;;;;;;22.93;19.43;;;19.80;99.90;;;;;;4862048;29;20915;-77
2021/07/13 12:37:04;;;;;;;21.87;19.57;;;19.90;99.90;;;;;;4860344;29;20443;-78
2021/07/13 12:39:31;;;;;;;20.27;17.97;;;20.00;99.90;;;;;;4858726;29;20542;-76
2021/07/13 12:42:12;;;;;;;20.20;18.10;;;20.00;99.90;;;;;;4874218;29;20435;-76
2021/07/13 12:44:44;;;;;;;21.07;19.07;;;20.00;99.90;;;;;;4859039;29;21050;-77
2021/07/13 12:47:32;;;;;;;20.87;18.30;;;20.00;99.90;;;;;;4864863;29;21120;-78
2021/07/13 12:50:04;;;;;;;21.93;17.70;;;20.10;99.90;;;;;;4881407;29;20523;-76